createdAt,value
2023-01-23T00:01:43.132Z,1.75
2023-01-23T00:06:04.765Z,1.77
2023-01-23T00:10:17.591Z,2.88
2023-01-23T00:14:30.145Z,1.02
2023-01-23T00:18:42.569Z,2.83
2023-01-23T00:22:55.264Z,1.80
2023-01-23T00:27:07.665Z,1.65
2023-01-23T00:31:23.279Z,1.70
2023-01-23T00:35:35.892Z,3.42
2023-01-23T00:39:51.115Z,1.55
2023-01-23T00:44:03.560Z,2.28
2023-01-23T00:48:16.129Z,3.75
2023-01-23T00:52:29.556Z,2.38
2023-01-23T00:56:41.958Z,1.75
2023-01-23T01:00:54.533Z,3.00
2023-01-23T01:05:07.202Z,3.45
2023-01-23T01:09:19.633Z,1.55
2023-01-23T01:13:32.240Z,1.73
2023-01-23T01:17:44.564Z,0.70
2023-01-23T01:21:56.967Z,1.17
2023-01-23T01:26:10.348Z,3.15
2023-01-23T01:30:23.030Z,1.15
2023-01-23T01:34:35.609Z,1.63
2023-01-23T01:38:48.829Z,1.63
2023-01-23T01:43:07.207Z,1.40
2023-01-23T01:47:19.619Z,2.45
2023-01-23T01:51:46.204Z,1.40
2023-01-23T01:55:59.288Z,0.40
2023-01-23T02:00:17.955Z,0.68
2023-01-23T02:04:36.622Z,1.93
2023-01-23T02:09:07.666Z,1.63
2023-01-23T02:13:39.601Z,1.73
2023-01-23T02:17:55.154Z,1.05
2023-01-23T02:22:27.698Z,1.33
2023-01-23T02:26:45.896Z,3.17
2023-01-23T02:31:00.329Z,1.13
2023-01-23T02:35:20.296Z,0.93
2023-01-23T02:39:33.502Z,2.13
2023-01-23T02:43:49.388Z,0.93
2023-01-23T02:48:02.214Z,3.90
2023-01-23T02:52:14.746Z,1.00
2023-01-23T02:56:27.105Z,0.95
2023-01-23T03:00:39.513Z,1.48
2023-01-23T03:04:51.951Z,1.10
2023-01-23T03:09:11.080Z,2.88
2023-01-23T03:13:24.568Z,1.30
2023-01-23T03:17:37.189Z,1.05
2023-01-23T03:21:50.487Z,1.95
2023-01-23T03:26:03.242Z,0.77
2023-01-23T03:30:17.474Z,0.93
2023-01-23T03:34:31.720Z,0.75
2023-01-23T03:39:04.385Z,1.40
2023-01-23T03:43:17.909Z,2.40
2023-01-23T03:47:34.274Z,1.52
2023-01-23T03:51:46.797Z,1.05
2023-01-23T03:55:59.237Z,0.80
2023-01-23T04:00:14.047Z,1.50
2023-01-23T04:04:29.335Z,2.95
2023-01-23T04:08:41.705Z,1.92
2023-01-23T04:12:55.031Z,3.85
2023-01-23T04:17:09.149Z,3.53
2023-01-23T04:21:22.754Z,1.73
2023-01-23T04:25:35.224Z,2.22
2023-01-23T04:29:49.927Z,2.65
2023-01-23T04:34:03.771Z,1.90
2023-01-23T04:38:16.171Z,2.10
2023-01-23T04:42:28.762Z,1.80
2023-01-23T04:46:54.305Z,1.88
2023-01-23T04:51:07.639Z,2.25
2023-01-23T04:55:20.703Z,2.28
2023-01-23T04:59:33.117Z,4.35
2023-01-23T05:03:46.918Z,3.38
2023-01-23T05:08:01.342Z,4.47
2023-01-23T05:12:15.024Z,3.42
2023-01-23T05:16:29.177Z,5.07
2023-01-23T05:21:07.550Z,4.65
2023-01-23T05:25:25.665Z,3.83
2023-01-23T05:29:40.322Z,6.90
2023-01-23T05:34:00.787Z,4.53
2023-01-23T05:38:13.811Z,3.90
2023-01-23T05:42:28.375Z,6.70
2023-01-23T05:47:09.650Z,6.05
2023-01-23T05:51:23.647Z,6.55
2023-01-23T05:55:39.953Z,8.38
2023-01-23T05:59:54.661Z,8.27
2023-01-23T06:04:27.075Z,8.75
2023-01-23T06:09:00.846Z,7.68
2023-01-23T06:13:15.722Z,9.32
2023-01-23T06:17:28.130Z,9.27
2023-01-23T06:21:40.662Z,7.72
2023-01-23T06:25:53.094Z,7.13
2023-01-23T06:30:06.605Z,6.38
2023-01-23T06:34:24.843Z,8.27
2023-01-23T06:38:42.294Z,9.02
2023-01-23T06:42:57.858Z,12.13
2023-01-23T06:47:10.299Z,5.90
2023-01-23T06:51:23.842Z,8.68
2023-01-23T06:55:36.550Z,12.45
2023-01-23T06:59:52.547Z,7.72
2023-01-23T07:04:06.409Z,12.90
2023-01-23T07:08:19.486Z,16.58
2023-01-23T07:12:32.715Z,12.95
2023-01-23T07:16:45.370Z,10.82
2023-01-23T07:20:57.903Z,13.95
2023-01-23T07:25:10.511Z,12.48
2023-01-23T07:29:22.859Z,12.52
2023-01-23T07:33:35.180Z,11.57
2023-01-23T07:37:48.004Z,14.85
2023-01-23T07:42:03.142Z,21.65
2023-01-23T07:46:15.824Z,22.25
2023-01-23T07:50:28.340Z,19.63
2023-01-23T07:54:40.681Z,16.75
2023-01-23T07:58:54.313Z,19.58
2023-01-23T08:03:08.461Z,15.98
2023-01-23T08:07:21.959Z,19.80
2023-01-23T08:11:34.573Z,17.35
2023-01-23T08:15:46.906Z,19.98
2023-01-23T08:19:59.370Z,13.35
2023-01-23T08:24:13.448Z,9.50
2023-01-23T08:28:26.840Z,10.40
2023-01-23T08:32:39.227Z,5.63
2023-01-23T08:36:51.989Z,8.23
2023-01-23T08:41:04.912Z,6.82
2023-01-23T08:45:17.318Z,15.27
2023-01-23T08:49:29.666Z,8.50
2023-01-23T08:53:42.510Z,7.43
2023-01-23T08:57:54.917Z,10.48
2023-01-23T09:02:07.406Z,15.45
2023-01-23T09:06:22.956Z,13.90
2023-01-23T09:10:35.417Z,14.52
2023-01-23T09:14:48.291Z,15.77
2023-01-23T09:19:00.710Z,15.10
2023-01-23T09:23:13.108Z,14.77
2023-01-23T09:27:25.745Z,15.75
2023-01-23T09:31:38.459Z,15.60
2023-01-23T09:35:54.128Z,24.27
2023-01-23T09:40:09.043Z,19.45
2023-01-23T09:44:31.882Z,18.77
2023-01-23T09:48:47.712Z,11.88
2023-01-23T09:53:06.319Z,17.10
2023-01-23T09:57:26.491Z,16.00
2023-01-23T10:01:39.229Z,17.95
2023-01-23T10:06:16.839Z,14.07
2023-01-23T10:10:47.986Z,14.68
2023-01-23T10:15:37.704Z,14.90
2023-01-23T10:20:03.394Z,11.13
2023-01-23T10:24:49.984Z,12.43
2023-01-23T10:29:22.555Z,11.07
2023-01-23T10:33:49.554Z,12.35
2023-01-23T10:38:12.711Z,9.38
2023-01-23T10:42:27.753Z,10.20
2023-01-23T10:46:49.776Z,12.45
2023-01-23T10:51:02.367Z,18.55
2023-01-23T10:55:20.693Z,17.73
2023-01-23T10:59:41.640Z,21.83
2023-01-23T11:03:54.476Z,16.08
2023-01-23T11:08:27.706Z,10.80
2023-01-23T11:12:51.877Z,16.02
2023-01-23T11:17:19.104Z,12.82
2023-01-23T11:21:56.474Z,10.85
2023-01-23T11:26:31.746Z,10.90
2023-01-23T11:31:15.775Z,9.25
2023-01-23T11:35:57.884Z,10.77
2023-01-23T11:40:28.947Z,13.40
2023-01-23T11:44:46.433Z,11.07
2023-01-23T11:49:05.085Z,18.00
2023-01-23T11:53:43.119Z,13.15
2023-01-23T11:58:05.218Z,8.38
2023-01-23T12:02:43.800Z,7.22
2023-01-23T12:07:22.522Z,5.45
2023-01-23T12:11:46.608Z,4.75
2023-01-23T12:16:17.527Z,6.68
2023-01-23T12:20:39.800Z,6.22
2023-01-23T12:25:31.876Z,4.95
2023-01-23T12:30:12.612Z,2.22
2023-01-23T12:34:31.093Z,4.07
2023-01-23T12:39:10.018Z,3.15
2023-01-23T12:43:54.969Z,1.50
2023-01-23T12:48:14.405Z,2.00
2023-01-23T12:52:44.041Z,4.15
2023-01-23T12:56:56.880Z,3.13
2023-01-23T13:01:46.894Z,3.00
2023-01-23T13:06:01.955Z,5.55
2023-01-23T13:10:57.713Z,4.55
2023-01-23T13:15:38.767Z,6.82
2023-01-23T13:20:12.188Z,5.85
2023-01-23T13:24:52.082Z,5.78
2023-01-23T13:29:25.801Z,6.03
2023-01-23T13:33:40.197Z,6.03
2023-01-23T13:37:52.579Z,9.82
2023-01-23T13:42:10.683Z,7.68
2023-01-23T14:24:05.393Z,3.90
2023-01-23T14:28:19.243Z,6.70
2023-01-23T14:32:34.425Z,5.57
2023-01-23T14:36:52.733Z,5.38
2023-01-23T14:41:07.688Z,7.47
2023-01-23T14:45:20.377Z,4.63
2023-01-23T14:49:41.529Z,8.55
2023-01-23T14:54:02.801Z,8.18
2023-01-23T14:58:25.613Z,10.63
2023-01-23T15:02:38.040Z,9.18
2023-01-23T15:06:56.932Z,13.48
2023-01-23T15:11:12.340Z,10.23
2023-01-23T15:15:26.788Z,15.40
2023-01-23T15:19:43.048Z,16.42
2023-01-23T15:24:10.537Z,13.70
2023-01-23T15:28:39.857Z,11.40
2023-01-23T15:32:52.258Z,14.85
2023-01-23T15:37:24.664Z,13.45
2023-01-23T15:42:03.594Z,12.65
2023-01-23T15:46:17.968Z,13.73
2023-01-23T15:50:30.773Z,15.85
2023-01-23T15:54:43.305Z,16.63
2023-01-23T15:58:56.174Z,34.65
2023-01-23T16:03:08.695Z,32.95
2023-01-23T16:07:25.783Z,37.08
2023-01-23T16:11:39.123Z,35.55
2023-01-23T16:15:52.834Z,36.13
2023-01-23T16:20:07.251Z,31.80
2023-01-23T16:24:22.622Z,33.95
2023-01-23T16:28:35.063Z,31.73
2023-01-23T16:32:47.491Z,26.38
2023-01-23T16:37:01.309Z,29.58
2023-01-23T16:41:14.076Z,26.38
2023-01-23T16:45:31.473Z,28.10
2023-01-23T16:49:52.090Z,29.27
2023-01-23T16:54:18.296Z,30.65
2023-01-23T16:58:41.365Z,34.47
2023-01-23T17:02:56.525Z,38.35
2023-01-23T17:07:19.415Z,39.85
2023-01-23T17:11:39.058Z,41.00
2023-01-23T17:15:54.772Z,48.30
2023-01-23T17:20:07.853Z,46.30
2023-01-23T17:24:20.310Z,44.45
2023-01-23T17:28:32.929Z,50.55
2023-01-23T17:32:50.402Z,58.92
2023-01-23T17:37:02.985Z,50.42
2023-01-23T17:41:16.851Z,49.13
2023-01-23T17:45:29.382Z,52.70
2023-01-23T17:50:01.578Z,52.90
2023-01-23T17:54:19.826Z,41.88
2023-01-23T17:58:34.508Z,46.30
2023-01-23T18:02:52.529Z,46.95
2023-01-23T18:07:08.188Z,50.40
2023-01-23T18:11:24.845Z,45.47
2023-01-23T18:16:00.575Z,48.25
2023-01-23T18:20:23.768Z,46.50
2023-01-23T18:24:38.647Z,48.55
2023-01-23T18:29:13.791Z,51.13
2023-01-23T18:34:09.288Z,49.95
2023-01-23T18:38:37.131Z,59.55
2023-01-23T18:43:20.406Z,59.53
2023-01-23T18:47:33.107Z,47.38
2023-01-23T18:52:08.620Z,47.83
2023-01-23T18:56:48.792Z,44.42
2023-01-23T19:01:27.083Z,39.57
2023-01-23T19:05:44.736Z,46.72
2023-01-23T19:09:57.742Z,43.95
2023-01-23T19:14:53.741Z,37.83
2023-01-23T19:19:28.487Z,45.00
2023-01-23T19:24:01.126Z,42.78
2023-01-23T19:28:13.981Z,43.67
2023-01-23T19:32:27.122Z,46.30
2023-01-23T19:36:39.857Z,46.92
2023-01-23T19:40:53.554Z,52.00
2023-01-23T19:45:06.608Z,49.80
2023-01-23T19:49:19.359Z,45.88
2023-01-23T19:53:33.281Z,41.17
2023-01-23T19:57:45.936Z,34.90
2023-01-23T20:01:58.522Z,34.50
2023-01-23T20:06:13.951Z,32.60
2023-01-23T20:10:27.410Z,30.75
2023-01-23T20:14:40.256Z,29.92
2023-01-23T20:18:54.723Z,29.88
2023-01-23T20:23:07.286Z,29.25
2023-01-23T20:27:20.576Z,28.45
2023-01-23T20:31:33.337Z,33.65
2023-01-23T20:35:49.137Z,36.83
2023-01-23T20:40:01.609Z,40.08
2023-01-23T20:44:15.498Z,38.05
2023-01-23T20:48:34.343Z,44.83
2023-01-23T20:53:05.357Z,82.75
2023-01-23T20:57:17.917Z,49.05
2023-01-23T21:01:52.226Z,41.63
2023-01-23T21:06:04.870Z,33.67
2023-01-23T21:10:17.555Z,24.23
2023-01-23T21:14:30.157Z,24.23
2023-01-23T21:18:46.562Z,18.08
2023-01-23T21:22:58.986Z,16.50
2023-01-23T21:27:11.397Z,18.42
2023-01-23T21:31:25.432Z,17.45
2023-01-23T21:35:37.817Z,16.73
2023-01-23T21:39:50.665Z,10.75
2023-01-23T21:44:03.054Z,8.70
2023-01-23T21:48:15.457Z,8.30
2023-01-23T21:52:27.871Z,5.72
2023-01-23T21:56:41.067Z,5.43
2023-01-23T22:01:20.146Z,6.18
2023-01-23T22:05:36.528Z,4.18
2023-01-23T22:09:48.916Z,5.45
2023-01-23T22:14:01.656Z,4.47
2023-01-23T22:18:14.059Z,3.78
2023-01-23T22:22:26.758Z,3.33
2023-01-23T22:26:39.205Z,4.25
2023-01-23T22:30:51.657Z,3.78
2023-01-23T22:35:04.232Z,4.15
2023-01-23T22:39:16.728Z,7.25
2023-01-23T22:43:29.628Z,2.40
2023-01-23T22:47:42.152Z,2.33
2023-01-23T22:51:54.647Z,2.22
2023-01-23T22:56:07.936Z,1.50
2023-01-23T23:00:20.966Z,2.10
2023-01-23T23:04:34.803Z,1.80
2023-01-23T23:08:51.383Z,2.78
2023-01-23T23:13:04.120Z,1.38
2023-01-23T23:17:16.921Z,1.92
2023-01-23T23:21:32.964Z,3.55
2023-01-23T23:25:45.268Z,3.05
2023-01-23T23:30:00.428Z,1.75
2023-01-23T23:34:12.795Z,2.67
2023-01-23T23:38:25.363Z,3.30
2023-01-23T23:42:38.109Z,3.97
2023-01-23T23:46:50.372Z,2.97
2023-01-23T23:51:05.392Z,1.58
2023-01-23T23:55:18.080Z,2.60
2023-01-23T23:59:30.554Z,3.65
